sensor_id;sensor_type;location;lat;lon;timestamp;pressure;altitude;pressure_sealevel;temperature;humidity
4326;BME280;58429;49.826;10.880;2024-02-16T00:00:40;98596;;;8.85;84.94
4326;BME280;58429;49.826;10.880;2024-02-16T00:01:40;98600;;;8.83;85.15
4326;BME280;58429;49.826;10.880;2024-02-16T00:02:40;98604;;;8.8;85.22
4326;BME280;58429;49.826;10.880;2024-02-16T00:03:40;98592;;;8.79;85.3
4326;BME280;58429;49.826;10.880;2024-02-16T00:04:40;98594;;;8.72;85.31
4326;BME280;58429;49.826;10.880;2024-02-16T00:05:40;98592;;;8.64;85.45
4326;BME280;58429;49.826;10.880;2024-02-16T00:06:40;98593;;;8.64;85.51
4326;BME280;58429;49.826;10.880;2024-02-16T00:07:40;98584;;;8.6;85.51
4326;BME280;58429;49.826;10.880;2024-02-16T00:08:41;98590;;;8.64;85.5
4326;BME280;58429;49.826;10.880;2024-02-16T00:09:40;98588;;;8.63;85.44
4326;BME280;58429;49.826;10.880;2024-02-16T00:10:40;98587;;;8.65;85.46
4326;BME280;58429;49.826;10.880;2024-02-16T00:11:40;98592;;;8.68;85.45
4326;BME280;58429;49.826;10.880;2024-02-16T00:12:40;98600;;;8.68;85.4
4326;BME280;58429;49.826;10.880;2024-02-16T00:13:40;98592;;;8.67;85.29
4326;BME280;58429;49.826;10.880;2024-02-16T00:14:40;98600;;;8.63;85.23
4326;BME280;58429;49.826;10.880;2024-02-16T00:15:40;98606;;;8.58;85.36
4326;BME280;58429;49.826;10.880;2024-02-16T00:16:40;98602;;;8.59;85.5
4326;BME280;58429;49.826;10.880;2024-02-16T00:17:40;98601;;;8.59;85.61
4326;BME280;58429;49.826;10.880;2024-02-16T00:18:40;98598;;;8.55;85.61
4326;BME280;58429;49.826;10.880;2024-02-16T00:19:40;98605;;;8.53;85.64
4326;BME280;58429;49.826;10.880;2024-02-16T00:20:40;98607;;;8.46;85.6
4326;BME280;58429;49.826;10.880;2024-02-16T00:21:40;98599;;;8.4;85.62
4326;BME280;58429;49.826;10.880;2024-02-16T00:22:40;98608;;;8.36;85.67
4326;BME280;58429;49.826;10.880;2024-02-16T00:23:40;98608;;;8.36;85.82
4326;BME280;58429;49.826;10.880;2024-02-16T00:24:40;98611;;;8.34;85.92
4326;BME280;58429;49.826;10.880;2024-02-16T00:25:40;98607;;;8.35;85.95
4326;BME280;58429;49.826;10.880;2024-02-16T00:26:40;98603;;;8.37;85.95
4326;BME280;58429;49.826;10.880;2024-02-16T00:27:40;98603;;;8.36;85.92
4326;BME280;58429;49.826;10.880;2024-02-16T00:28:40;98604;;;8.37;85.93
4326;BME280;58429;49.826;10.880;2024-02-16T00:29:40;98602;;;8.41;85.92
4326;BME280;58429;49.826;10.880;2024-02-16T00:30:40;98604;;;8.41;85.93
4326;BME280;58429;49.826;10.880;2024-02-16T00:31:40;98604;;;8.44;85.94
4326;BME280;58429;49.826;10.880;2024-02-16T00:32:40;98602;;;8.41;85.94
4326;BME280;58429;49.826;10.880;2024-02-16T00:33:40;98612;;;8.36;86.09
4326;BME280;58429;49.826;10.880;2024-02-16T00:34:40;98605;;;8.35;86.11
4326;BME280;58429;49.826;10.880;2024-02-16T00:35:40;98609;;;8.34;86.11
4326;BME280;58429;49.826;10.880;2024-02-16T00:36:40;98610;;;8.34;86.12
4326;BME280;58429;49.826;10.880;2024-02-16T00:37:40;98609;;;8.35;86.21
4326;BME280;58429;49.826;10.880;2024-02-16T00:38:40;98611;;;8.35;86.34
4326;BME280;58429;49.826;10.880;2024-02-16T00:39:40;98604;;;8.34;86.24
4326;BME280;58429;49.826;10.880;2024-02-16T00:40:40;98598;;;8.32;86.11
4326;BME280;58429;49.826;10.880;2024-02-16T00:41:40;98606;;;8.33;86.07
4326;BME280;58429;49.826;10.880;2024-02-16T00:42:40;98607;;;8.29;85.98
4326;BME280;58429;49.826;10.880;2024-02-16T00:43:40;98603;;;8.27;85.97
4326;BME280;58429;49.826;10.880;2024-02-16T00:44:40;98606;;;8.24;85.97
4326;BME280;58429;49.826;10.880;2024-02-16T00:45:40;98614;;;8.22;85.92
4326;BME280;58429;49.826;10.880;2024-02-16T00:46:40;98613;;;8.21;85.9
4326;BME280;58429;49.826;10.880;2024-02-16T00:47:40;98613;;;8.17;85.92
4326;BME280;58429;49.826;10.880;2024-02-16T00:48:40;98610;;;8.18;85.91
4326;BME280;58429;49.826;10.880;2024-02-16T00:49:40;98611;;;8.13;85.91
4326;BME280;58429;49.826;10.880;2024-02-16T00:50:40;98616;;;8.17;85.93
4326;BME280;58429;49.826;10.880;2024-02-16T00:51:40;98611;;;8.17;85.94
4326;BME280;58429;49.826;10.880;2024-02-16T00:52:41;98613;;;8.19;85.94
4326;BME280;58429;49.826;10.880;2024-02-16T00:53:40;98614;;;8.18;85.91
4326;BME280;58429;49.826;10.880;2024-02-16T00:54:40;98618;;;8.16;85.96
4326;BME280;58429;49.826;10.880;2024-02-16T00:55:40;98617;;;8.15;85.97
4326;BME280;58429;49.826;10.880;2024-02-16T00:56:40;98619;;;8.09;86
4326;BME280;58429;49.826;10.880;2024-02-16T00:57:40;98621;;;8.12;86.04
4326;BME280;58429;49.826;10.880;2024-02-16T00:58:40;98614;;;8.16;86.12
4326;BME280;58429;49.826;10.880;2024-02-16T00:59:40;98616;;;8.17;86.17
4326;BME280;58429;49.826;10.880;2024-02-16T01:00:40;98616;;;8.2;86.21
4326;BME280;58429;49.826;10.880;2024-02-16T01:01:40;98605;;;8.18;86.36
4326;BME280;58429;49.826;10.880;2024-02-16T01:02:40;98605;;;8.21;86.52
4326;BME280;58429;49.826;10.880;2024-02-16T01:03:40;98607;;;8.26;86.61
4326;BME280;58429;49.826;10.880;2024-02-16T01:04:40;98606;;;8.29;86.62
4326;BME280;58429;49.826;10.880;2024-02-16T01:05:40;98599;;;8.28;86.55
4326;BME280;58429;49.826;10.880;2024-02-16T01:06:40;98601;;;8.29;86.53
4326;BME280;58429;49.826;10.880;2024-02-16T01:07:40;98605;;;8.29;86.46
4326;BME280;58429;49.826;10.880;2024-02-16T01:08:41;98604;;;8.3;86.38
4326;BME280;58429;49.826;10.880;2024-02-16T01:09:40;98606;;;8.3;86.35
4326;BME280;58429;49.826;10.880;2024-02-16T01:10:40;98605;;;8.3;86.3
4326;BME280;58429;49.826;10.880;2024-02-16T01:11:41;98604;;;8.25;86.28
4326;BME280;58429;49.826;10.880;2024-02-16T01:12:40;98604;;;8.3;86.39
4326;BME280;58429;49.826;10.880;2024-02-16T01:13:40;98610;;;8.27;86.43
4326;BME280;58429;49.826;10.880;2024-02-16T01:14:40;98602;;;8.26;86.44
4326;BME280;58429;49.826;10.880;2024-02-16T01:15:40;98609;;;8.26;86.44
4326;BME280;58429;49.826;10.880;2024-02-16T01:16:40;98609;;;8.24;86.44
4326;BME280;58429;49.826;10.880;2024-02-16T01:17:40;98610;;;8.21;86.53
4326;BME280;58429;49.826;10.880;2024-02-16T01:18:40;98610;;;8.18;86.53
4326;BME280;58429;49.826;10.880;2024-02-16T01:19:40;98603;;;8.18;86.55
4326;BME280;58429;49.826;10.880;2024-02-16T01:20:40;98616;;;8.2;86.58
4326;BME280;58429;49.826;10.880;2024-02-16T01:21:40;98614;;;8.17;86.59
4326;BME280;58429;49.826;10.880;2024-02-16T01:22:41;98604;;;8.14;86.6
4326;BME280;58429;49.826;10.880;2024-02-16T01:23:40;98606;;;8.15;86.63
4326;BME280;58429;49.826;10.880;2024-02-16T01:24:41;98604;;;8.15;86.6
4326;BME280;58429;49.826;10.880;2024-02-16T01:25:40;98607;;;8.15;86.64
4326;BME280;58429;49.826;10.880;2024-02-16T01:26:40;98609;;;8.17;86.65
4326;BME280;58429;49.826;10.880;2024-02-16T01:27:40;98607;;;8.13;86.7
4326;BME280;58429;49.826;10.880;2024-02-16T01:28:40;98604;;;8.12;86.72
4326;BME280;58429;49.826;10.880;2024-02-16T01:29:40;98602;;;8.18;86.73
4326;BME280;58429;49.826;10.880;2024-02-16T01:30:40;98604;;;8.16;86.72
4326;BME280;58429;49.826;10.880;2024-02-16T01:31:40;98602;;;8.23;86.73
4326;BME280;58429;49.826;10.880;2024-02-16T01:32:40;98599;;;8.18;86.68
4326;BME280;58429;49.826;10.880;2024-02-16T01:33:40;98599;;;8.23;86.66
4326;BME280;58429;49.826;10.880;2024-02-16T01:34:40;98601;;;8.23;86.66
4326;BME280;58429;49.826;10.880;2024-02-16T01:35:41;98599;;;8.2;86.64
4326;BME280;58429;49.826;10.880;2024-02-16T01:36:40;98604;;;8.24;86.64
4326;BME280;58429;49.826;10.880;2024-02-16T01:37:40;98596;;;8.25;86.66
4326;BME280;58429;49.826;10.880;2024-02-16T01:38:40;98598;;;8.24;86.63
4326;BME280;58429;49.826;10.880;2024-02-16T01:39:40;98597;;;8.22;86.57
4326;BME280;58429;49.826;10.880;2024-02-16T01:40:40;98597;;;8.26;86.54
4326;BME280;58429;49.826;10.880;2024-02-16T01:41:40;98588;;;8.27;86.51
4326;BME280;58429;49.826;10.880;2024-02-16T01:42:40;98591;;;8.24;86.46
4326;BME280;58429;49.826;10.880;2024-02-16T01:43:40;98591;;;8.24;86.43
4326;BME280;58429;49.826;10.880;2024-02-16T01:44:40;98591;;;8.24;86.4
4326;BME280;58429;49.826;10.880;2024-02-16T01:45:40;98586;;;8.22;86.38
4326;BME280;58429;49.826;10.880;2024-02-16T01:46:40;98587;;;8.23;86.39
4326;BME280;58429;49.826;10.880;2024-02-16T01:47:41;98589;;;8.17;86.34
4326;BME280;58429;49.826;10.880;2024-02-16T01:48:40;98590;;;8.21;86.34
4326;BME280;58429;49.826;10.880;2024-02-16T01:49:40;98585;;;8.21;86.34
4326;BME280;58429;49.826;10.880;2024-02-16T01:50:41;98586;;;8.17;86.34
4326;BME280;58429;49.826;10.880;2024-02-16T01:51:40;98579;;;8.17;86.31
4326;BME280;58429;49.826;10.880;2024-02-16T01:52:40;98584;;;8.17;86.32
4326;BME280;58429;49.826;10.880;2024-02-16T01:53:40;98581;;;8.15;86.31
4326;BME280;58429;49.826;10.880;2024-02-16T01:54:40;98581;;;8.15;86.29
4326;BME280;58429;49.826;10.880;2024-02-16T01:55:40;98579;;;8.16;86.32
4326;BME280;58429;49.826;10.880;2024-02-16T01:56:41;98578;;;8.16;86.34
4326;BME280;58429;49.826;10.880;2024-02-16T01:57:42;98572;;;8.12;86.33
4326;BME280;58429;49.826;10.880;2024-02-16T01:58:40;98580;;;8.11;86.34
4326;BME280;58429;49.826;10.880;2024-02-16T01:59:40;98578;;;8.11;86.33
4326;BME280;58429;49.826;10.880;2024-02-16T02:00:40;98575;;;8.09;86.37
4326;BME280;58429;49.826;10.880;2024-02-16T02:01:40;98572;;;8.11;86.37
4326;BME280;58429;49.826;10.880;2024-02-16T02:02:41;98569;;;8.07;86.35
4326;BME280;58429;49.826;10.880;2024-02-16T02:03:40;98572;;;8.07;86.4
4326;BME280;58429;49.826;10.880;2024-02-16T02:04:40;98571;;;8.06;86.44
4326;BME280;58429;49.826;10.880;2024-02-16T02:05:43;98569;;;8.06;86.49
4326;BME280;58429;49.826;10.880;2024-02-16T02:06:40;98572;;;8.06;86.57
4326;BME280;58429;49.826;10.880;2024-02-16T02:07:41;98562;;;8.08;86.61
4326;BME280;58429;49.826;10.880;2024-02-16T02:08:40;98563;;;8.04;86.61
4326;BME280;58429;49.826;10.880;2024-02-16T02:09:40;98563;;;8.06;86.7
4326;BME280;58429;49.826;10.880;2024-02-16T02:10:41;98563;;;8.06;86.69
4326;BME280;58429;49.826;10.880;2024-02-16T02:11:40;98557;;;8.08;86.71
4326;BME280;58429;49.826;10.880;2024-02-16T02:12:42;98561;;;8.06;86.75
4326;BME280;58429;49.826;10.880;2024-02-16T02:13:40;98548;;;8.04;86.97
4326;BME280;58429;49.826;10.880;2024-02-16T02:14:40;98551;;;7.98;87.07
4326;BME280;58429;49.826;10.880;2024-02-16T02:15:41;98553;;;8.01;87.13
4326;BME280;58429;49.826;10.880;2024-02-16T02:16:40;98550;;;8.01;87.15
4326;BME280;58429;49.826;10.880;2024-02-16T02:17:40;98553;;;8.04;87.24
4326;BME280;58429;49.826;10.880;2024-02-16T02:18:41;98551;;;8.05;87.3
4326;BME280;58429;49.826;10.880;2024-02-16T02:19:40;98552;;;8.04;87.29
4326;BME280;58429;49.826;10.880;2024-02-16T02:20:40;98551;;;8.05;87.3
4326;BME280;58429;49.826;10.880;2024-02-16T02:21:40;98550;;;8.12;87.32
4326;BME280;58429;49.826;10.880;2024-02-16T02:22:40;98563;;;8.11;87.32
4326;BME280;58429;49.826;10.880;2024-02-16T02:23:41;98554;;;8.11;87.41
4326;BME280;58429;49.826;10.880;2024-02-16T02:24:40;98553;;;8.13;87.43
4326;BME280;58429;49.826;10.880;2024-02-16T02:25:40;98552;;;8.15;87.51
4326;BME280;58429;49.826;10.880;2024-02-16T02:26:40;98547;;;8.25;87.51
4326;BME280;58429;49.826;10.880;2024-02-16T02:27:40;98547;;;8.25;87.49
4326;BME280;58429;49.826;10.880;2024-02-16T02:28:40;98544;;;8.29;87.47
4326;BME280;58429;49.826;10.880;2024-02-16T02:29:41;98549;;;8.31;87.49
4326;BME280;58429;49.826;10.880;2024-02-16T02:30:40;98552;;;8.32;87.44
4326;BME280;58429;49.826;10.880;2024-02-16T02:31:40;98552;;;8.35;87.43
4326;BME280;58429;49.826;10.880;2024-02-16T02:32:40;98553;;;8.37;87.41
4326;BME280;58429;49.826;10.880;2024-02-16T02:33:40;98552;;;8.37;87.39
4326;BME280;58429;49.826;10.880;2024-02-16T02:34:40;98557;;;8.42;87.35
4326;BME280;58429;49.826;10.880;2024-02-16T02:35:40;98567;;;8.44;87.31
4326;BME280;58429;49.826;10.880;2024-02-16T02:36:41;98558;;;8.52;87.28
4326;BME280;58429;49.826;10.880;2024-02-16T02:37:40;98561;;;8.54;87.22
4326;BME280;58429;49.826;10.880;2024-02-16T02:38:40;98568;;;8.57;87.2
4326;BME280;58429;49.826;10.880;2024-02-16T02:39:40;98568;;;8.63;87.22
4326;BME280;58429;49.826;10.880;2024-02-16T02:40:40;98567;;;8.61;87.13
4326;BME280;58429;49.826;10.880;2024-02-16T02:41:40;98563;;;8.61;87.07
4326;BME280;58429;49.826;10.880;2024-02-16T02:42:41;98565;;;8.63;87.05
4326;BME280;58429;49.826;10.880;2024-02-16T02:43:40;98550;;;8.65;87.01
4326;BME280;58429;49.826;10.880;2024-02-16T02:44:41;98552;;;8.64;86.96
4326;BME280;58429;49.826;10.880;2024-02-16T02:45:40;98547;;;8.65;86.95
4326;BME280;58429;49.826;10.880;2024-02-16T02:46:40;98548;;;8.63;86.95
4326;BME280;58429;49.826;10.880;2024-02-16T02:47:41;98544;;;8.6;86.92
4326;BME280;58429;49.826;10.880;2024-02-16T02:48:40;98549;;;8.61;86.97
4326;BME280;58429;49.826;10.880;2024-02-16T02:49:40;98549;;;8.59;86.96
4326;BME280;58429;49.826;10.880;2024-02-16T02:50:40;98551;;;8.53;86.92
4326;BME280;58429;49.826;10.880;2024-02-16T02:51:40;98554;;;8.53;86.9
4326;BME280;58429;49.826;10.880;2024-02-16T02:52:40;98549;;;8.51;86.93
4326;BME280;58429;49.826;10.880;2024-02-16T02:53:40;98552;;;8.4;86.94
4326;BME280;58429;49.826;10.880;2024-02-16T02:54:40;98545;;;8.35;86.92
4326;BME280;58429;49.826;10.880;2024-02-16T02:55:40;98549;;;8.34;86.97
4326;BME280;58429;49.826;10.880;2024-02-16T02:56:40;98547;;;8.32;86.99
4326;BME280;58429;49.826;10.880;2024-02-16T02:57:40;98539;;;8.29;87.03
4326;BME280;58429;49.826;10.880;2024-02-16T02:58:40;98544;;;8.29;87.06
4326;BME280;58429;49.826;10.880;2024-02-16T02:59:40;98540;;;8.28;87.04
4326;BME280;58429;49.826;10.880;2024-02-16T03:00:40;98537;;;8.28;87.06
4326;BME280;58429;49.826;10.880;2024-02-16T03:01:40;98534;;;8.28;87.07
4326;BME280;58429;49.826;10.880;2024-02-16T03:02:40;98539;;;8.24;87.09
4326;BME280;58429;49.826;10.880;2024-02-16T03:03:40;98543;;;8.22;87.09
4326;BME280;58429;49.826;10.880;2024-02-16T03:04:40;98541;;;8.25;87.11
4326;BME280;58429;49.826;10.880;2024-02-16T03:05:41;98545;;;8.25;87.12
4326;BME280;58429;49.826;10.880;2024-02-16T03:06:41;98543;;;8.22;87.11
4326;BME280;58429;49.826;10.880;2024-02-16T03:07:40;98545;;;8.23;87.13
4326;BME280;58429;49.826;10.880;2024-02-16T03:08:40;98541;;;8.25;87.11
4326;BME280;58429;49.826;10.880;2024-02-16T03:09:40;98537;;;8.2;87.1
4326;BME280;58429;49.826;10.880;2024-02-16T03:10:41;98545;;;8.2;87.09
4326;BME280;58429;49.826;10.880;2024-02-16T03:11:41;98545;;;8.19;87.1
4326;BME280;58429;49.826;10.880;2024-02-16T03:12:40;98544;;;8.17;87.13
4326;BME280;58429;49.826;10.880;2024-02-16T03:13:40;98544;;;8.18;87.13
4326;BME280;58429;49.826;10.880;2024-02-16T03:14:41;98541;;;8.13;87.16
4326;BME280;58429;49.826;10.880;2024-02-16T03:15:41;98546;;;8.11;87.17
4326;BME280;58429;49.826;10.880;2024-02-16T03:16:40;98545;;;8.1;87.11
4326;BME280;58429;49.826;10.880;2024-02-16T03:17:40;98545;;;8.12;87.13
4326;BME280;58429;49.826;10.880;2024-02-16T03:18:40;98541;;;8.12;87.11
4326;BME280;58429;49.826;10.880;2024-02-16T03:19:40;98543;;;8.14;87.11
4326;BME280;58429;49.826;10.880;2024-02-16T03:20:40;98547;;;8.13;87.13
4326;BME280;58429;49.826;10.880;2024-02-16T03:21:40;98540;;;8.09;87.09
4326;BME280;58429;49.826;10.880;2024-02-16T03:22:41;98540;;;8.09;87.05
4326;BME280;58429;49.826;10.880;2024-02-16T03:23:40;98536;;;8.09;87.08
4326;BME280;58429;49.826;10.880;2024-02-16T03:24:40;98532;;;8.1;87.13
4326;BME280;58429;49.826;10.880;2024-02-16T03:25:40;98531;;;8.1;87.14
4326;BME280;58429;49.826;10.880;2024-02-16T03:26:40;98536;;;8.09;87.17
4326;BME280;58429;49.826;10.880;2024-02-16T03:27:41;98529;;;8.09;87.16
4326;BME280;58429;49.826;10.880;2024-02-16T03:28:40;98534;;;8.06;87.23
4326;BME280;58429;49.826;10.880;2024-02-16T03:29:40;98534;;;8.05;87.24
4326;BME280;58429;49.826;10.880;2024-02-16T03:30:41;98532;;;8.04;87.28
4326;BME280;58429;49.826;10.880;2024-02-16T03:31:40;98535;;;8.05;87.3
4326;BME280;58429;49.826;10.880;2024-02-16T03:32:40;98543;;;8.05;87.31
4326;BME280;58429;49.826;10.880;2024-02-16T03:33:40;98542;;;8.09;87.34
4326;BME280;58429;49.826;10.880;2024-02-16T03:34:40;98539;;;8.09;87.37
4326;BME280;58429;49.826;10.880;2024-02-16T03:35:41;98540;;;8.07;87.37
4326;BME280;58429;49.826;10.880;2024-02-16T03:36:40;98538;;;8.12;87.42
4326;BME280;58429;49.826;10.880;2024-02-16T03:37:40;98547;;;8.09;87.43
4326;BME280;58429;49.826;10.880;2024-02-16T03:38:41;98544;;;8.1;87.45
4326;BME280;58429;49.826;10.880;2024-02-16T03:39:40;98541;;;8.1;87.46
4326;BME280;58429;49.826;10.880;2024-02-16T03:40:40;98546;;;8.06;87.46
4326;BME280;58429;49.826;10.880;2024-02-16T03:41:40;98553;;;8.07;87.47
4326;BME280;58429;49.826;10.880;2024-02-16T03:42:40;98561;;;8.07;87.45
4326;BME280;58429;49.826;10.880;2024-02-16T03:43:41;98556;;;8.06;87.47
4326;BME280;58429;49.826;10.880;2024-02-16T03:44:40;98560;;;8.06;87.46
4326;BME280;58429;49.826;10.880;2024-02-16T03:45:40;98562;;;8.09;87.49
4326;BME280;58429;49.826;10.880;2024-02-16T03:46:41;98555;;;8.06;87.5
4326;BME280;58429;49.826;10.880;2024-02-16T03:47:40;98558;;;8.09;87.49
4326;BME280;58429;49.826;10.880;2024-02-16T03:48:41;98561;;;8.06;87.51
4326;BME280;58429;49.826;10.880;2024-02-16T03:49:43;98563;;;8.07;87.5
4326;BME280;58429;49.826;10.880;2024-02-16T03:50:40;98567;;;8.05;87.6
4326;BME280;58429;49.826;10.880;2024-02-16T03:51:40;98563;;;8.03;87.72
4326;BME280;58429;49.826;10.880;2024-02-16T03:52:41;98566;;;8.02;87.83
4326;BME280;58429;49.826;10.880;2024-02-16T03:53:40;98559;;;8.04;87.85
4326;BME280;58429;49.826;10.880;2024-02-16T03:54:41;98552;;;8.04;87.89
4326;BME280;58429;49.826;10.880;2024-02-16T03:55:40;98554;;;8;87.95
4326;BME280;58429;49.826;10.880;2024-02-16T03:56:41;98556;;;8.04;87.96
4326;BME280;58429;49.826;10.880;2024-02-16T03:57:41;98561;;;8.02;87.93
4326;BME280;58429;49.826;10.880;2024-02-16T03:58:41;98560;;;8.01;87.93
4326;BME280;58429;49.826;10.880;2024-02-16T03:59:41;98559;;;8.01;87.9
4326;BME280;58429;49.826;10.880;2024-02-16T04:00:40;98555;;;8.06;87.99
4326;BME280;58429;49.826;10.880;2024-02-16T04:01:40;98553;;;8.05;87.99
4326;BME280;58429;49.826;10.880;2024-02-16T04:02:41;98557;;;8.12;88
4326;BME280;58429;49.826;10.880;2024-02-16T04:03:40;98550;;;8.14;88.01
4326;BME280;58429;49.826;10.880;2024-02-16T04:04:41;98555;;;8.13;87.97
4326;BME280;58429;49.826;10.880;2024-02-16T04:05:41;98547;;;8.12;87.9
4326;BME280;58429;49.826;10.880;2024-02-16T04:06:41;98548;;;8.18;87.88
4326;BME280;58429;49.826;10.880;2024-02-16T04:07:41;98554;;;8.17;87.83
4326;BME280;58429;49.826;10.880;2024-02-16T04:08:41;98544;;;8.16;87.82
4326;BME280;58429;49.826;10.880;2024-02-16T04:09:40;98551;;;8.16;87.82
4326;BME280;58429;49.826;10.880;2024-02-16T04:10:41;98555;;;8.15;87.77
4326;BME280;58429;49.826;10.880;2024-02-16T04:11:41;98553;;;8.13;87.77
4326;BME280;58429;49.826;10.880;2024-02-16T04:12:41;98553;;;8.12;87.77
4326;BME280;58429;49.826;10.880;2024-02-16T04:13:41;98551;;;8.15;87.79
4326;BME280;58429;49.826;10.880;2024-02-16T04:14:41;98551;;;8.11;87.75
4326;BME280;58429;49.826;10.880;2024-02-16T04:15:40;98557;;;8.1;87.78
4326;BME280;58429;49.826;10.880;2024-02-16T04:16:42;98560;;;8.12;87.78
4326;BME280;58429;49.826;10.880;2024-02-16T04:17:40;98559;;;8.07;87.74
4326;BME280;58429;49.826;10.880;2024-02-16T04:18:41;98556;;;8.08;87.77
4326;BME280;58429;49.826;10.880;2024-02-16T04:19:40;98553;;;8.07;87.77
4326;BME280;58429;49.826;10.880;2024-02-16T04:20:40;98558;;;8.06;87.75
4326;BME280;58429;49.826;10.880;2024-02-16T04:21:41;98552;;;8.08;87.76
4326;BME280;58429;49.826;10.880;2024-02-16T04:22:41;98550;;;8.07;87.75
4326;BME280;58429;49.826;10.880;2024-02-16T04:23:41;98558;;;8.09;87.78
4326;BME280;58429;49.826;10.880;2024-02-16T04:24:40;98549;;;8.07;87.75
4326;BME280;58429;49.826;10.880;2024-02-16T04:25:40;98551;;;8.13;87.75
4326;BME280;58429;49.826;10.880;2024-02-16T04:26:41;98551;;;8.1;87.75
4326;BME280;58429;49.826;10.880;2024-02-16T04:27:41;98547;;;8.08;87.76
4326;BME280;58429;49.826;10.880;2024-02-16T04:28:41;98545;;;8.11;87.76
4326;BME280;58429;49.826;10.880;2024-02-16T04:29:41;98541;;;8.12;87.75
4326;BME280;58429;49.826;10.880;2024-02-16T04:30:41;98532;;;8.13;87.75
4326;BME280;58429;49.826;10.880;2024-02-16T04:31:41;98540;;;8.11;87.76
4326;BME280;58429;49.826;10.880;2024-02-16T04:32:41;98537;;;8.13;87.74
4326;BME280;58429;49.826;10.880;2024-02-16T04:33:41;98537;;;8.11;87.71
4326;BME280;58429;49.826;10.880;2024-02-16T04:34:41;98540;;;8.17;87.74
4326;BME280;58429;49.826;10.880;2024-02-16T04:35:41;98541;;;8.11;87.74
4326;BME280;58429;49.826;10.880;2024-02-16T04:36:41;98534;;;8.12;87.71
4326;BME280;58429;49.826;10.880;2024-02-16T04:37:41;98534;;;8.13;87.71
4326;BME280;58429;49.826;10.880;2024-02-16T04:38:41;98533;;;8.16;87.74
4326;BME280;58429;49.826;10.880;2024-02-16T04:39:41;98535;;;8.13;87.75
4326;BME280;58429;49.826;10.880;2024-02-16T04:40:41;98540;;;8.1;87.79
4326;BME280;58429;49.826;10.880;2024-02-16T04:41:41;98543;;;8.12;87.8
4326;BME280;58429;49.826;10.880;2024-02-16T04:42:41;98542;;;8.11;87.82
4326;BME280;58429;49.826;10.880;2024-02-16T04:43:41;98547;;;8.1;87.88
4326;BME280;58429;49.826;10.880;2024-02-16T04:44:41;98533;;;8.09;87.89
4326;BME280;58429;49.826;10.880;2024-02-16T04:45:41;98545;;;8.09;87.89
4326;BME280;58429;49.826;10.880;2024-02-16T04:46:41;98545;;;8.08;87.9
4326;BME280;58429;49.826;10.880;2024-02-16T04:47:41;98538;;;8.04;87.9
4326;BME280;58429;49.826;10.880;2024-02-16T04:48:41;98538;;;8.1;87.92
4326;BME280;58429;49.826;10.880;2024-02-16T04:49:41;98542;;;8.08;87.94
4326;BME280;58429;49.826;10.880;2024-02-16T04:50:41;98539;;;8.08;87.92
4326;BME280;58429;49.826;10.880;2024-02-16T04:51:41;98544;;;8.08;87.9
4326;BME280;58429;49.826;10.880;2024-02-16T04:52:41;98541;;;8.1;87.9
4326;BME280;58429;49.826;10.880;2024-02-16T04:53:41;98540;;;8.1;87.89
4326;BME280;58429;49.826;10.880;2024-02-16T04:54:41;98536;;;8.09;87.89
4326;BME280;58429;49.826;10.880;2024-02-16T04:55:41;98537;;;8.13;87.87
4326;BME280;58429;49.826;10.880;2024-02-16T04:56:41;98536;;;8.1;87.83
4326;BME280;58429;49.826;10.880;2024-02-16T04:57:41;98536;;;8.13;87.86
4326;BME280;58429;49.826;10.880;2024-02-16T04:58:41;98534;;;8.12;87.83
4326;BME280;58429;49.826;10.880;2024-02-16T04:59:41;98534;;;8.13;87.82
4326;BME280;58429;49.826;10.880;2024-02-16T05:00:41;98536;;;8.18;87.81
4326;BME280;58429;49.826;10.880;2024-02-16T05:01:41;98541;;;8.16;87.74
4326;BME280;58429;49.826;10.880;2024-02-16T05:02:41;98540;;;8.2;87.72
4326;BME280;58429;49.826;10.880;2024-02-16T05:03:41;98544;;;8.26;87.68
4326;BME280;58429;49.826;10.880;2024-02-16T05:04:41;98549;;;8.26;87.64
4326;BME280;58429;49.826;10.880;2024-02-16T05:05:41;98541;;;8.29;87.6
4326;BME280;58429;49.826;10.880;2024-02-16T05:06:41;98542;;;8.31;87.55
4326;BME280;58429;49.826;10.880;2024-02-16T05:07:41;98549;;;8.29;87.49
4326;BME280;58429;49.826;10.880;2024-02-16T05:08:41;98552;;;8.34;87.45
4326;BME280;58429;49.826;10.880;2024-02-16T05:09:41;98556;;;8.38;87.26
4326;BME280;58429;49.826;10.880;2024-02-16T05:10:41;98557;;;8.45;87.13
4326;BME280;58429;49.826;10.880;2024-02-16T05:11:41;98558;;;8.51;86.99
4326;BME280;58429;49.826;10.880;2024-02-16T05:12:41;98558;;;8.54;86.84
4326;BME280;58429;49.826;10.880;2024-02-16T05:13:41;98555;;;8.6;86.77
4326;BME280;58429;49.826;10.880;2024-02-16T05:14:41;98564;;;8.59;86.7
4326;BME280;58429;49.826;10.880;2024-02-16T05:15:41;98563;;;8.59;86.74
4326;BME280;58429;49.826;10.880;2024-02-16T05:16:43;98562;;;8.58;86.75
4326;BME280;58429;49.826;10.880;2024-02-16T05:17:41;98565;;;8.52;86.81
4326;BME280;58429;49.826;10.880;2024-02-16T05:18:41;98560;;;8.51;86.89
4326;BME280;58429;49.826;10.880;2024-02-16T05:19:41;98559;;;8.46;86.96
4326;BME280;58429;49.826;10.880;2024-02-16T05:20:41;98559;;;8.42;86.98
4326;BME280;58429;49.826;10.880;2024-02-16T05:21:41;98559;;;8.45;86.97
4326;BME280;58429;49.826;10.880;2024-02-16T05:22:41;98562;;;8.41;86.98
4326;BME280;58429;49.826;10.880;2024-02-16T05:23:41;98560;;;8.43;87.01
4326;BME280;58429;49.826;10.880;2024-02-16T05:24:41;98553;;;8.41;87.05
4326;BME280;58429;49.826;10.880;2024-02-16T05:25:41;98550;;;8.41;87.08
4326;BME280;58429;49.826;10.880;2024-02-16T05:26:41;98549;;;8.4;87.07
4326;BME280;58429;49.826;10.880;2024-02-16T05:27:41;98553;;;8.39;87.06
4326;BME280;58429;49.826;10.880;2024-02-16T05:28:41;98548;;;8.46;87.06
4326;BME280;58429;49.826;10.880;2024-02-16T05:29:41;98551;;;8.39;87.04
4326;BME280;58429;49.826;10.880;2024-02-16T05:30:41;98554;;;8.41;86.99
4326;BME280;58429;49.826;10.880;2024-02-16T05:31:41;98557;;;8.41;87.01
4326;BME280;58429;49.826;10.880;2024-02-16T05:32:41;98559;;;8.41;87.03
4326;BME280;58429;49.826;10.880;2024-02-16T05:33:41;98560;;;8.37;87.04
4326;BME280;58429;49.826;10.880;2024-02-16T05:34:41;98561;;;8.39;87.04
4326;BME280;58429;49.826;10.880;2024-02-16T05:35:41;98564;;;8.37;87.03
4326;BME280;58429;49.826;10.880;2024-02-16T05:36:41;98566;;;8.37;87